Terminal Aerodrome Forecast
Issued by NWS

Current Version | Previous Version | Text Only | Print | Product List | Glossary On
Versions: 1 2 3 4 5 6 7 8 9 10 11 12 13 14 15 16 17
000
FTUS45 KABQ 302338
TAFGUP
TAF
KGUP 302338Z 0100/0124 22005KT P6SM FEW060
     FM010200 VRB03KT P6SM FEW070
     FM011700 25008KT P6SM SCT070=

USA.gov is the U.S. government's official web portal to all federal, state and local government web resources and services.